sensor_id;sensor_type;location;lat;lon;timestamp;P1;durP1;ratioP1;P2;durP2;ratioP2
21036;SDS011;10677;50.942;4.028;2023-01-16T00:01:52;5.70;;;1.30;;
21036;SDS011;10677;50.942;4.028;2023-01-16T00:04:20;8.30;;;1.60;;
21036;SDS011;10677;50.942;4.028;2023-01-16T00:06:46;7.68;;;1.55;;
21036;SDS011;10677;50.942;4.028;2023-01-16T00:09:12;8.70;;;1.50;;
21036;SDS011;10677;50.942;4.028;2023-01-16T00:11:37;5.38;;;1.20;;
21036;SDS011;10677;50.942;4.028;2023-01-16T00:14:03;7.22;;;1.30;;
21036;SDS011;10677;50.942;4.028;2023-01-16T00:16:29;6.47;;;1.55;;
21036;SDS011;10677;50.942;4.028;2023-01-16T00:18:56;3.60;;;1.40;;
21036;SDS011;10677;50.942;4.028;2023-01-16T00:21:22;5.95;;;1.40;;
21036;SDS011;10677;50.942;4.028;2023-01-16T00:23:55;7.68;;;1.55;;
21036;SDS011;10677;50.942;4.028;2023-01-16T00:29:44;5.65;;;1.40;;
21036;SDS011;10677;50.942;4.028;2023-01-16T00:32:10;6.85;;;1.50;;
21036;SDS011;10677;50.942;4.028;2023-01-16T00:34:36;10.85;;;1.38;;
21036;SDS011;10677;50.942;4.028;2023-01-16T00:37:01;5.30;;;2.20;;
21036;SDS011;10677;50.942;4.028;2023-01-16T00:39:27;5.50;;;1.67;;
21036;SDS011;10677;50.942;4.028;2023-01-16T00:41:53;3.97;;;1.10;;
21036;SDS011;10677;50.942;4.028;2023-01-16T00:44:29;8.40;;;1.75;;
21036;SDS011;10677;50.942;4.028;2023-01-16T00:46:55;6.07;;;1.10;;
21036;SDS011;10677;50.942;4.028;2023-01-16T00:49:22;4.57;;;1.20;;
21036;SDS011;10677;50.942;4.028;2023-01-16T00:51:48;5.82;;;1.17;;
21036;SDS011;10677;50.942;4.028;2023-01-16T00:54:13;8.63;;;1.30;;
21036;SDS011;10677;50.942;4.028;2023-01-16T00:56:39;7.00;;;0.82;;
21036;SDS011;10677;50.942;4.028;2023-01-16T00:59:06;3.97;;;1.23;;
21036;SDS011;10677;50.942;4.028;2023-01-16T01:01:32;6.90;;;1.05;;
21036;SDS011;10677;50.942;4.028;2023-01-16T01:04:00;8.73;;;1.27;;
21036;SDS011;10677;50.942;4.028;2023-01-16T01:06:26;7.72;;;0.95;;
21036;SDS011;10677;50.942;4.028;2023-01-16T01:08:52;4.75;;;0.80;;
21036;SDS011;10677;50.942;4.028;2023-01-16T01:11:17;3.70;;;0.77;;
21036;SDS011;10677;50.942;4.028;2023-01-16T01:13:43;6.38;;;1.67;;
21036;SDS011;10677;50.942;4.028;2023-01-16T01:16:09;5.47;;;0.98;;
21036;SDS011;10677;50.942;4.028;2023-01-16T01:18:36;4.78;;;0.95;;
21036;SDS011;10677;50.942;4.028;2023-01-16T01:21:02;4.07;;;1.20;;
21036;SDS011;10677;50.942;4.028;2023-01-16T01:23:28;4.88;;;1.15;;
21036;SDS011;10677;50.942;4.028;2023-01-16T01:25:54;4.70;;;1.02;;
21036;SDS011;10677;50.942;4.028;2023-01-16T01:28:20;5.20;;;1.00;;
21036;SDS011;10677;50.942;4.028;2023-01-16T01:30:47;8.60;;;1.17;;
21036;SDS011;10677;50.942;4.028;2023-01-16T01:33:12;5.90;;;1.10;;
21036;SDS011;10677;50.942;4.028;2023-01-16T01:35:38;7.25;;;1.33;;
21036;SDS011;10677;50.942;4.028;2023-01-16T01:38:04;5.55;;;1.13;;
21036;SDS011;10677;50.942;4.028;2023-01-16T01:40:32;7.57;;;1.92;;
21036;SDS011;10677;50.942;4.028;2023-01-16T01:42:58;8.05;;;1.30;;
21036;SDS011;10677;50.942;4.028;2023-01-16T01:45:27;7.60;;;1.88;;
21036;SDS011;10677;50.942;4.028;2023-01-16T01:50:44;7.68;;;1.88;;
21036;SDS011;10677;50.942;4.028;2023-01-16T01:53:26;10.60;;;2.55;;
21036;SDS011;10677;50.942;4.028;2023-01-16T01:55:56;8.50;;;2.50;;
21036;SDS011;10677;50.942;4.028;2023-01-16T01:58:26;8.27;;;2.10;;
21036;SDS011;10677;50.942;4.028;2023-01-16T02:00:54;8.48;;;2.53;;
21036;SDS011;10677;50.942;4.028;2023-01-16T02:05:57;9.55;;;2.35;;
21036;SDS011;10677;50.942;4.028;2023-01-16T02:08:29;11.07;;;2.58;;
21036;SDS011;10677;50.942;4.028;2023-01-16T02:13:52;10.25;;;2.85;;
21036;SDS011;10677;50.942;4.028;2023-01-16T02:16:23;11.98;;;2.63;;
21036;SDS011;10677;50.942;4.028;2023-01-16T02:19:09;13.07;;;1.90;;
21036;SDS011;10677;50.942;4.028;2023-01-16T02:24:30;11.02;;;1.73;;
21036;SDS011;10677;50.942;4.028;2023-01-16T02:30:18;9.15;;;2.15;;
21036;SDS011;10677;50.942;4.028;2023-01-16T02:38:35;8.55;;;2.40;;
21036;SDS011;10677;50.942;4.028;2023-01-16T02:41:15;6.25;;;1.50;;
21036;SDS011;10677;50.942;4.028;2023-01-16T02:43:52;6.95;;;1.90;;
21036;SDS011;10677;50.942;4.028;2023-01-16T02:51:57;4.32;;;1.15;;
21036;SDS011;10677;50.942;4.028;2023-01-16T02:54:59;10.75;;;1.92;;
21036;SDS011;10677;50.942;4.028;2023-01-16T02:57:31;6.95;;;1.73;;
21036;SDS011;10677;50.942;4.028;2023-01-16T03:00:02;7.22;;;1.35;;
21036;SDS011;10677;50.942;4.028;2023-01-16T03:02:30;8.27;;;1.73;;
21036;SDS011;10677;50.942;4.028;2023-01-16T03:04:56;8.95;;;1.30;;
21036;SDS011;10677;50.942;4.028;2023-01-16T03:13:04;8.13;;;1.73;;
21036;SDS011;10677;50.942;4.028;2023-01-16T03:15:55;8.32;;;1.58;;
21036;SDS011;10677;50.942;4.028;2023-01-16T03:18:32;9.82;;;1.35;;
21036;SDS011;10677;50.942;4.028;2023-01-16T03:21:38;12.32;;;1.80;;
21036;SDS011;10677;50.942;4.028;2023-01-16T03:30:44;8.98;;;1.50;;
21036;SDS011;10677;50.942;4.028;2023-01-16T03:36:45;6.93;;;1.63;;
21036;SDS011;10677;50.942;4.028;2023-01-16T03:39:12;13.35;;;1.65;;
21036;SDS011;10677;50.942;4.028;2023-01-16T03:41:39;5.70;;;1.08;;
21036;SDS011;10677;50.942;4.028;2023-01-16T03:44:09;8.55;;;1.20;;
21036;SDS011;10677;50.942;4.028;2023-01-16T03:46:43;9.13;;;1.08;;
21036;SDS011;10677;50.942;4.028;2023-01-16T03:49:15;6.05;;;1.50;;
21036;SDS011;10677;50.942;4.028;2023-01-16T03:51:46;5.85;;;1.48;;
21036;SDS011;10677;50.942;4.028;2023-01-16T03:59:32;7.68;;;1.50;;
21036;SDS011;10677;50.942;4.028;2023-01-16T04:02:13;7.40;;;1.30;;
21036;SDS011;10677;50.942;4.028;2023-01-16T04:04:52;8.07;;;1.23;;
21036;SDS011;10677;50.942;4.028;2023-01-16T04:07:26;10.05;;;1.40;;
21036;SDS011;10677;50.942;4.028;2023-01-16T04:10:00;7.53;;;1.08;;
21036;SDS011;10677;50.942;4.028;2023-01-16T04:12:32;6.03;;;1.35;;
21036;SDS011;10677;50.942;4.028;2023-01-16T04:15:03;4.47;;;1.10;;
21036;SDS011;10677;50.942;4.028;2023-01-16T04:17:31;5.55;;;1.15;;
21036;SDS011;10677;50.942;4.028;2023-01-16T04:19:58;7.50;;;2.00;;
21036;SDS011;10677;50.942;4.028;2023-01-16T04:22:24;5.97;;;1.38;;
21036;SDS011;10677;50.942;4.028;2023-01-16T04:24:53;7.78;;;1.25;;
21036;SDS011;10677;50.942;4.028;2023-01-16T04:27:22;8.57;;;1.73;;
21036;SDS011;10677;50.942;4.028;2023-01-16T04:29:48;6.60;;;1.10;;
21036;SDS011;10677;50.942;4.028;2023-01-16T04:32:14;10.10;;;1.05;;
21036;SDS011;10677;50.942;4.028;2023-01-16T04:34:40;8.95;;;1.08;;
21036;SDS011;10677;50.942;4.028;2023-01-16T04:37:05;10.85;;;1.70;;
21036;SDS011;10677;50.942;4.028;2023-01-16T04:39:32;8.60;;;1.45;;
21036;SDS011;10677;50.942;4.028;2023-01-16T04:41:57;7.78;;;1.90;;
21036;SDS011;10677;50.942;4.028;2023-01-16T04:44:23;9.57;;;1.55;;
21036;SDS011;10677;50.942;4.028;2023-01-16T04:46:49;9.23;;;1.40;;
21036;SDS011;10677;50.942;4.028;2023-01-16T04:49:15;5.60;;;1.00;;
21036;SDS011;10677;50.942;4.028;2023-01-16T04:51:41;1.65;;;0.60;;
21036;SDS011;10677;50.942;4.028;2023-01-16T04:54:07;8.15;;;1.10;;
21036;SDS011;10677;50.942;4.028;2023-01-16T04:56:38;7.03;;;1.50;;
21036;SDS011;10677;50.942;4.028;2023-01-16T04:59:04;6.95;;;1.42;;
21036;SDS011;10677;50.942;4.028;2023-01-16T05:01:30;3.08;;;1.05;;
21036;SDS011;10677;50.942;4.028;2023-01-16T05:04:00;7.40;;;1.13;;
21036;SDS011;10677;50.942;4.028;2023-01-16T05:06:29;9.70;;;1.40;;
21036;SDS011;10677;50.942;4.028;2023-01-16T05:08:55;8.23;;;1.58;;
21036;SDS011;10677;50.942;4.028;2023-01-16T05:11:21;5.93;;;1.30;;
21036;SDS011;10677;50.942;4.028;2023-01-16T05:13:47;6.53;;;1.10;;
21036;SDS011;10677;50.942;4.028;2023-01-16T05:16:12;4.53;;;1.27;;
21036;SDS011;10677;50.942;4.028;2023-01-16T05:18:38;6.53;;;1.10;;
21036;SDS011;10677;50.942;4.028;2023-01-16T05:21:04;6.50;;;1.23;;
21036;SDS011;10677;50.942;4.028;2023-01-16T05:23:30;3.75;;;1.15;;
21036;SDS011;10677;50.942;4.028;2023-01-16T05:25:58;9.43;;;1.77;;
21036;SDS011;10677;50.942;4.028;2023-01-16T05:28:24;2.92;;;1.10;;
21036;SDS011;10677;50.942;4.028;2023-01-16T05:30:50;7.50;;;2.67;;
21036;SDS011;10677;50.942;4.028;2023-01-16T05:33:16;6.30;;;1.80;;
21036;SDS011;10677;50.942;4.028;2023-01-16T05:35:42;5.60;;;0.68;;
21036;SDS011;10677;50.942;4.028;2023-01-16T05:38:09;5.47;;;1.50;;
21036;SDS011;10677;50.942;4.028;2023-01-16T05:40:35;7.07;;;1.98;;
21036;SDS011;10677;50.942;4.028;2023-01-16T05:43:00;10.15;;;2.53;;
21036;SDS011;10677;50.942;4.028;2023-01-16T05:45:26;3.88;;;0.77;;
21036;SDS011;10677;50.942;4.028;2023-01-16T05:47:52;4.50;;;1.40;;
21036;SDS011;10677;50.942;4.028;2023-01-16T05:50:17;2.53;;;0.70;;
21036;SDS011;10677;50.942;4.028;2023-01-16T05:52:43;3.70;;;0.82;;
21036;SDS011;10677;50.942;4.028;2023-01-16T05:55:09;4.50;;;0.90;;
21036;SDS011;10677;50.942;4.028;2023-01-16T05:57:34;3.05;;;0.70;;
21036;SDS011;10677;50.942;4.028;2023-01-16T06:00:00;5.90;;;0.82;;
21036;SDS011;10677;50.942;4.028;2023-01-16T06:02:26;3.83;;;0.95;;
21036;SDS011;10677;50.942;4.028;2023-01-16T06:04:52;2.10;;;0.70;;
21036;SDS011;10677;50.942;4.028;2023-01-16T06:07:21;3.60;;;0.57;;
21036;SDS011;10677;50.942;4.028;2023-01-16T06:09:46;2.17;;;0.50;;
21036;SDS011;10677;50.942;4.028;2023-01-16T06:12:15;2.53;;;0.52;;
21036;SDS011;10677;50.942;4.028;2023-01-16T06:14:42;3.38;;;0.63;;
21036;SDS011;10677;50.942;4.028;2023-01-16T06:17:08;2.08;;;0.80;;
21036;SDS011;10677;50.942;4.028;2023-01-16T06:19:35;2.55;;;0.47;;
21036;SDS011;10677;50.942;4.028;2023-01-16T06:22:00;0.63;;;0.20;;
21036;SDS011;10677;50.942;4.028;2023-01-16T06:24:26;2.00;;;0.77;;
21036;SDS011;10677;50.942;4.028;2023-01-16T06:26:52;2.75;;;0.45;;
21036;SDS011;10677;50.942;4.028;2023-01-16T06:29:17;1.63;;;0.40;;
21036;SDS011;10677;50.942;4.028;2023-01-16T06:31:43;2.67;;;0.60;;
21036;SDS011;10677;50.942;4.028;2023-01-16T06:34:09;4.47;;;0.50;;
21036;SDS011;10677;50.942;4.028;2023-01-16T06:36:34;0.80;;;0.50;;
21036;SDS011;10677;50.942;4.028;2023-01-16T06:39:00;1.02;;;0.40;;
21036;SDS011;10677;50.942;4.028;2023-01-16T06:41:26;1.15;;;0.30;;
21036;SDS011;10677;50.942;4.028;2023-01-16T06:43:52;3.25;;;0.45;;
21036;SDS011;10677;50.942;4.028;2023-01-16T06:46:17;2.08;;;0.45;;
21036;SDS011;10677;50.942;4.028;2023-01-16T06:48:43;2.28;;;0.47;;
21036;SDS011;10677;50.942;4.028;2023-01-16T06:51:10;2.08;;;0.47;;
21036;SDS011;10677;50.942;4.028;2023-01-16T06:53:36;3.78;;;0.63;;
21036;SDS011;10677;50.942;4.028;2023-01-16T06:56:02;3.13;;;0.77;;
21036;SDS011;10677;50.942;4.028;2023-01-16T06:58:28;6.82;;;3.58;;
21036;SDS011;10677;50.942;4.028;2023-01-16T07:00:54;2.00;;;0.50;;
21036;SDS011;10677;50.942;4.028;2023-01-16T07:03:20;1.40;;;0.60;;
21036;SDS011;10677;50.942;4.028;2023-01-16T07:05:47;2.58;;;0.65;;
21036;SDS011;10677;50.942;4.028;2023-01-16T07:08:17;4.82;;;2.20;;
21036;SDS011;10677;50.942;4.028;2023-01-16T07:10:43;5.18;;;2.88;;
21036;SDS011;10677;50.942;4.028;2023-01-16T07:13:10;2.20;;;0.82;;
21036;SDS011;10677;50.942;4.028;2023-01-16T07:15:41;2.50;;;0.90;;
21036;SDS011;10677;50.942;4.028;2023-01-16T07:18:31;2.90;;;1.08;;
21036;SDS011;10677;50.942;4.028;2023-01-16T07:21:15;3.53;;;1.70;;
21036;SDS011;10677;50.942;4.028;2023-01-16T07:24:08;0.82;;;0.40;;
21036;SDS011;10677;50.942;4.028;2023-01-16T07:26:39;1.65;;;0.30;;
21036;SDS011;10677;50.942;4.028;2023-01-16T07:29:08;0.63;;;0.30;;
21036;SDS011;10677;50.942;4.028;2023-01-16T07:31:34;0.40;;;0.30;;
21036;SDS011;10677;50.942;4.028;2023-01-16T07:34:01;1.67;;;0.40;;
21036;SDS011;10677;50.942;4.028;2023-01-16T07:36:28;1.73;;;0.38;;
21036;SDS011;10677;50.942;4.028;2023-01-16T07:38:54;0.93;;;0.30;;
21036;SDS011;10677;50.942;4.028;2023-01-16T07:41:20;1.33;;;0.60;;
21036;SDS011;10677;50.942;4.028;2023-01-16T07:43:46;1.35;;;0.40;;
21036;SDS011;10677;50.942;4.028;2023-01-16T07:46:12;1.35;;;0.40;;
21036;SDS011;10677;50.942;4.028;2023-01-16T07:48:39;0.98;;;0.30;;
21036;SDS011;10677;50.942;4.028;2023-01-16T07:51:05;0.85;;;0.50;;
21036;SDS011;10677;50.942;4.028;2023-01-16T07:53:30;0.88;;;0.50;;
21036;SDS011;10677;50.942;4.028;2023-01-16T07:56:00;1.52;;;0.60;;
21036;SDS011;10677;50.942;4.028;2023-01-16T07:58:27;0.85;;;0.50;;
21036;SDS011;10677;50.942;4.028;2023-01-16T08:00:54;3.10;;;0.40;;
21036;SDS011;10677;50.942;4.028;2023-01-16T08:03:22;1.92;;;0.40;;
21036;SDS011;10677;50.942;4.028;2023-01-16T08:05:48;0.82;;;0.30;;
21036;SDS011;10677;50.942;4.028;2023-01-16T08:08:17;1.55;;;0.47;;
21036;SDS011;10677;50.942;4.028;2023-01-16T08:10:52;1.80;;;0.40;;
21036;SDS011;10677;50.942;4.028;2023-01-16T08:13:19;2.42;;;0.50;;
21036;SDS011;10677;50.942;4.028;2023-01-16T08:15:44;1.75;;;0.40;;
21036;SDS011;10677;50.942;4.028;2023-01-16T08:18:11;2.35;;;0.47;;
21036;SDS011;10677;50.942;4.028;2023-01-16T08:20:38;3.05;;;0.60;;
21036;SDS011;10677;50.942;4.028;2023-01-16T08:23:06;2.55;;;0.80;;
21036;SDS011;10677;50.942;4.028;2023-01-16T08:25:32;3.67;;;0.73;;
21036;SDS011;10677;50.942;4.028;2023-01-16T08:27:58;1.75;;;0.60;;
21036;SDS011;10677;50.942;4.028;2023-01-16T08:30:24;2.67;;;0.60;;
21036;SDS011;10677;50.942;4.028;2023-01-16T08:32:51;4.90;;;0.90;;
21036;SDS011;10677;50.942;4.028;2023-01-16T08:35:24;2.50;;;0.73;;
21036;SDS011;10677;50.942;4.028;2023-01-16T08:37:49;2.33;;;0.77;;
21036;SDS011;10677;50.942;4.028;2023-01-16T08:40:16;4.88;;;0.80;;
21036;SDS011;10677;50.942;4.028;2023-01-16T08:42:45;4.68;;;0.80;;
21036;SDS011;10677;50.942;4.028;2023-01-16T08:45:29;5.05;;;1.10;;
21036;SDS011;10677;50.942;4.028;2023-01-16T08:48:15;3.40;;;1.05;;
21036;SDS011;10677;50.942;4.028;2023-01-16T08:51:07;5.43;;;0.85;;
21036;SDS011;10677;50.942;4.028;2023-01-16T08:53:54;5.22;;;1.13;;
21036;SDS011;10677;50.942;4.028;2023-01-16T08:56:21;4.45;;;0.70;;
21036;SDS011;10677;50.942;4.028;2023-01-16T08:58:47;2.40;;;0.60;;
21036;SDS011;10677;50.942;4.028;2023-01-16T09:01:14;3.97;;;0.70;;
21036;SDS011;10677;50.942;4.028;2023-01-16T09:03:40;2.65;;;0.60;;
21036;SDS011;10677;50.942;4.028;2023-01-16T09:06:06;2.72;;;0.93;;
21036;SDS011;10677;50.942;4.028;2023-01-16T09:08:32;2.90;;;0.75;;
21036;SDS011;10677;50.942;4.028;2023-01-16T09:10:57;2.10;;;0.60;;
21036;SDS011;10677;50.942;4.028;2023-01-16T09:13:42;1.85;;;0.75;;
21036;SDS011;10677;50.942;4.028;2023-01-16T09:16:14;2.38;;;0.82;;
21036;SDS011;10677;50.942;4.028;2023-01-16T09:18:48;1.42;;;0.65;;
21036;SDS011;10677;50.942;4.028;2023-01-16T09:23:48;2.53;;;0.60;;
21036;SDS011;10677;50.942;4.028;2023-01-16T09:26:13;0.80;;;0.40;;
21036;SDS011;10677;50.942;4.028;2023-01-16T09:28:39;1.17;;;0.40;;
21036;SDS011;10677;50.942;4.028;2023-01-16T09:31:05;1.67;;;0.60;;
21036;SDS011;10677;50.942;4.028;2023-01-16T09:33:31;1.27;;;0.55;;
21036;SDS011;10677;50.942;4.028;2023-01-16T09:35:59;3.85;;;0.63;;
21036;SDS011;10677;50.942;4.028;2023-01-16T09:38:24;0.73;;;0.30;;
21036;SDS011;10677;50.942;4.028;2023-01-16T09:40:53;2.80;;;0.60;;
21036;SDS011;10677;50.942;4.028;2023-01-16T09:43:32;1.77;;;0.50;;
21036;SDS011;10677;50.942;4.028;2023-01-16T09:46:04;2.42;;;0.55;;
21036;SDS011;10677;50.942;4.028;2023-01-16T09:48:50;2.25;;;0.57;;
21036;SDS011;10677;50.942;4.028;2023-01-16T09:51:35;1.73;;;0.60;;
21036;SDS011;10677;50.942;4.028;2023-01-16T09:54:12;3.45;;;0.90;;
21036;SDS011;10677;50.942;4.028;2023-01-16T09:57:08;3.42;;;0.70;;
21036;SDS011;10677;50.942;4.028;2023-01-16T09:59:57;2.28;;;0.70;;
21036;SDS011;10677;50.942;4.028;2023-01-16T10:02:24;2.10;;;0.65;;
21036;SDS011;10677;50.942;4.028;2023-01-16T10:04:53;3.75;;;0.60;;
21036;SDS011;10677;50.942;4.028;2023-01-16T10:07:24;2.90;;;0.70;;
21036;SDS011;10677;50.942;4.028;2023-01-16T10:10:06;2.30;;;0.60;;
21036;SDS011;10677;50.942;4.028;2023-01-16T10:12:55;3.53;;;0.70;;
21036;SDS011;10677;50.942;4.028;2023-01-16T10:15:46;2.20;;;0.70;;
21036;SDS011;10677;50.942;4.028;2023-01-16T10:23:54;1.50;;;0.70;;
21036;SDS011;10677;50.942;4.028;2023-01-16T10:26:30;1.17;;;0.65;;
21036;SDS011;10677;50.942;4.028;2023-01-16T10:31:51;1.13;;;0.50;;
21036;SDS011;10677;50.942;4.028;2023-01-16T10:34:39;1.33;;;0.50;;
21036;SDS011;10677;50.942;4.028;2023-01-16T10:37:16;2.15;;;0.57;;
21036;SDS011;10677;50.942;4.028;2023-01-16T10:39:43;0.98;;;0.40;;
21036;SDS011;10677;50.942;4.028;2023-01-16T10:42:11;1.30;;;0.45;;
21036;SDS011;10677;50.942;4.028;2023-01-16T10:45:13;1.02;;;0.43;;
21036;SDS011;10677;50.942;4.028;2023-01-16T10:47:59;2.33;;;0.50;;
21036;SDS011;10677;50.942;4.028;2023-01-16T10:50:45;3.45;;;1.20;;
21036;SDS011;10677;50.942;4.028;2023-01-16T10:53:12;1.17;;;0.50;;
21036;SDS011;10677;50.942;4.028;2023-01-16T10:55:40;2.03;;;0.70;;
21036;SDS011;10677;50.942;4.028;2023-01-16T11:00:45;3.25;;;1.00;;
21036;SDS011;10677;50.942;4.028;2023-01-16T11:03:14;0.93;;;0.50;;
21036;SDS011;10677;50.942;4.028;2023-01-16T11:05:44;1.10;;;0.60;;
21036;SDS011;10677;50.942;4.028;2023-01-16T11:08:18;1.02;;;0.40;;
21036;SDS011;10677;50.942;4.028;2023-01-16T11:10:48;1.63;;;0.60;;
21036;SDS011;10677;50.942;4.028;2023-01-16T11:13:25;1.75;;;0.63;;
21036;SDS011;10677;50.942;4.028;2023-01-16T11:18:56;1.95;;;0.80;;
21036;SDS011;10677;50.942;4.028;2023-01-16T11:21:27;1.60;;;0.50;;
21036;SDS011;10677;50.942;4.028;2023-01-16T11:23:59;3.83;;;0.70;;
21036;SDS011;10677;50.942;4.028;2023-01-16T11:26:28;2.55;;;0.75;;
21036;SDS011;10677;50.942;4.028;2023-01-16T11:28:56;3.55;;;1.02;;
21036;SDS011;10677;50.942;4.028;2023-01-16T11:31:23;0.93;;;0.50;;
21036;SDS011;10677;50.942;4.028;2023-01-16T11:33:57;3.13;;;0.93;;
21036;SDS011;10677;50.942;4.028;2023-01-16T11:36:27;1.80;;;0.93;;
21036;SDS011;10677;50.942;4.028;2023-01-16T11:38:57;4.72;;;2.67;;
21036;SDS011;10677;50.942;4.028;2023-01-16T11:41:27;2.00;;;0.82;;
21036;SDS011;10677;50.942;4.028;2023-01-16T11:44:06;7.57;;;4.10;;
21036;SDS011;10677;50.942;4.028;2023-01-16T11:47:21;1.50;;;0.77;;
21036;SDS011;10677;50.942;4.028;2023-01-16T11:49:49;1.17;;;0.43;;
21036;SDS011;10677;50.942;4.028;2023-01-16T11:52:17;2.20;;;0.98;;
21036;SDS011;10677;50.942;4.028;2023-01-16T11:54:57;1.35;;;0.60;;
21036;SDS011;10677;50.942;4.028;2023-01-16T12:21:35;1.13;;;0.50;;
21036;SDS011;10677;50.942;4.028;2023-01-16T12:42:47;1.02;;;0.50;;
21036;SDS011;10677;50.942;4.028;2023-01-16T13:34:45;2.50;;;1.20;;
21036;SDS011;10677;50.942;4.028;2023-01-16T13:42:38;4.82;;;1.38;;
21036;SDS011;10677;50.942;4.028;2023-01-16T13:45:31;2.30;;;1.30;;
21036;SDS011;10677;50.942;4.028;2023-01-16T13:48:21;3.65;;;1.73;;
21036;SDS011;10677;50.942;4.028;2023-01-16T13:50:57;2.45;;;1.35;;
21036;SDS011;10677;50.942;4.028;2023-01-16T13:53:25;4.40;;;1.30;;
21036;SDS011;10677;50.942;4.028;2023-01-16T13:56:00;3.20;;;1.17;;
21036;SDS011;10677;50.942;4.028;2023-01-16T13:58:41;2.08;;;0.95;;
21036;SDS011;10677;50.942;4.028;2023-01-16T14:06:53;2.92;;;1.08;;
21036;SDS011;10677;50.942;4.028;2023-01-16T14:15:52;2.53;;;1.13;;
21036;SDS011;10677;50.942;4.028;2023-01-16T14:34:37;4.32;;;1.58;;
21036;SDS011;10677;50.942;4.028;2023-01-16T14:39:48;4.72;;;1.88;;
21036;SDS011;10677;50.942;4.028;2023-01-16T14:45:21;4.80;;;2.38;;
21036;SDS011;10677;50.942;4.028;2023-01-16T15:35:15;2.03;;;0.60;;
21036;SDS011;10677;50.942;4.028;2023-01-16T15:37:52;0.98;;;0.50;;
21036;SDS011;10677;50.942;4.028;2023-01-16T15:40:22;1.70;;;0.55;;
21036;SDS011;10677;50.942;4.028;2023-01-16T15:42:53;1.80;;;0.50;;
21036;SDS011;10677;50.942;4.028;2023-01-16T15:45:42;2.38;;;0.77;;
21036;SDS011;10677;50.942;4.028;2023-01-16T15:51:09;2.72;;;0.95;;
21036;SDS011;10677;50.942;4.028;2023-01-16T15:53:41;4.03;;;1.60;;
21036;SDS011;10677;50.942;4.028;2023-01-16T15:58:51;4.22;;;1.10;;
21036;SDS011;10677;50.942;4.028;2023-01-16T16:01:30;5.25;;;0.93;;
21036;SDS011;10677;50.942;4.028;2023-01-16T16:03:58;2.47;;;0.80;;
21036;SDS011;10677;50.942;4.028;2023-01-16T16:06:26;5.50;;;0.82;;
21036;SDS011;10677;50.942;4.028;2023-01-16T16:08:54;1.67;;;0.88;;
21036;SDS011;10677;50.942;4.028;2023-01-16T16:11:24;4.78;;;1.10;;
21036;SDS011;10677;50.942;4.028;2023-01-16T16:17:23;2.03;;;0.77;;
21036;SDS011;10677;50.942;4.028;2023-01-16T16:20:25;4.35;;;0.90;;
21036;SDS011;10677;50.942;4.028;2023-01-16T16:22:52;4.18;;;0.85;;
21036;SDS011;10677;50.942;4.028;2023-01-16T16:25:43;4.07;;;1.00;;
21036;SDS011;10677;50.942;4.028;2023-01-16T16:28:23;4.53;;;0.80;;
21036;SDS011;10677;50.942;4.028;2023-01-16T16:36:57;4.18;;;0.90;;
21036;SDS011;10677;50.942;4.028;2023-01-16T16:47:35;2.65;;;1.10;;
21036;SDS011;10677;50.942;4.028;2023-01-16T16:50:28;2.25;;;0.80;;
21036;SDS011;10677;50.942;4.028;2023-01-16T16:53:02;2.95;;;0.70;;
21036;SDS011;10677;50.942;4.028;2023-01-16T16:55:34;2.58;;;0.73;;
21036;SDS011;10677;50.942;4.028;2023-01-16T16:58:02;6.85;;;0.95;;
21036;SDS011;10677;50.942;4.028;2023-01-16T17:00:30;5.50;;;1.50;;
21036;SDS011;10677;50.942;4.028;2023-01-16T17:03:06;7.40;;;1.15;;
21036;SDS011;10677;50.942;4.028;2023-01-16T17:05:40;4.38;;;1.00;;
21036;SDS011;10677;50.942;4.028;2023-01-16T17:08:06;5.10;;;1.33;;
21036;SDS011;10677;50.942;4.028;2023-01-16T17:10:34;7.60;;;1.10;;
21036;SDS011;10677;50.942;4.028;2023-01-16T17:12:59;4.18;;;0.77;;
21036;SDS011;10677;50.942;4.028;2023-01-16T17:15:25;0.90;;;0.50;;
21036;SDS011;10677;50.942;4.028;2023-01-16T17:17:51;2.35;;;0.63;;
21036;SDS011;10677;50.942;4.028;2023-01-16T17:20:22;6.72;;;0.70;;
21036;SDS011;10677;50.942;4.028;2023-01-16T17:22:49;3.28;;;0.55;;
21036;SDS011;10677;50.942;4.028;2023-01-16T17:25:15;2.25;;;0.65;;
21036;SDS011;10677;50.942;4.028;2023-01-16T17:27:49;1.42;;;0.40;;
21036;SDS011;10677;50.942;4.028;2023-01-16T17:30:17;2.83;;;0.57;;
21036;SDS011;10677;50.942;4.028;2023-01-16T17:32:44;1.27;;;0.52;;
21036;SDS011;10677;50.942;4.028;2023-01-16T17:35:17;4.38;;;0.60;;
21036;SDS011;10677;50.942;4.028;2023-01-16T17:37:42;4.05;;;0.60;;
21036;SDS011;10677;50.942;4.028;2023-01-16T17:40:08;1.30;;;0.68;;
21036;SDS011;10677;50.942;4.028;2023-01-16T17:42:35;2.22;;;0.90;;
21036;SDS011;10677;50.942;4.028;2023-01-16T17:48:22;2.50;;;0.98;;
21036;SDS011;10677;50.942;4.028;2023-01-16T18:57:09;8.98;;;2.90;;
21036;SDS011;10677;50.942;4.028;2023-01-16T18:59:55;16.92;;;2.38;;
21036;SDS011;10677;50.942;4.028;2023-01-16T19:05:16;12.00;;;2.22;;
21036;SDS011;10677;50.942;4.028;2023-01-16T19:07:51;10.85;;;2.38;;
21036;SDS011;10677;50.942;4.028;2023-01-16T19:44:40;5.22;;;0.90;;
21036;SDS011;10677;50.942;4.028;2023-01-16T19:47:25;3.72;;;0.82;;
21036;SDS011;10677;50.942;4.028;2023-01-16T19:52:28;6.32;;;1.13;;
21036;SDS011;10677;50.942;4.028;2023-01-16T19:54:56;5.45;;;1.02;;
21036;SDS011;10677;50.942;4.028;2023-01-16T19:57:24;5.07;;;0.80;;
21036;SDS011;10677;50.942;4.028;2023-01-16T19:59:52;5.97;;;1.30;;
21036;SDS011;10677;50.942;4.028;2023-01-16T20:02:18;6.53;;;1.17;;
21036;SDS011;10677;50.942;4.028;2023-01-16T20:04:43;10.05;;;2.05;;
21036;SDS011;10677;50.942;4.028;2023-01-16T20:07:11;6.75;;;1.10;;
21036;SDS011;10677;50.942;4.028;2023-01-16T20:09:38;8.10;;;1.70;;
21036;SDS011;10677;50.942;4.028;2023-01-16T20:12:08;4.85;;;1.60;;
21036;SDS011;10677;50.942;4.028;2023-01-16T20:14:52;7.05;;;1.80;;
21036;SDS011;10677;50.942;4.028;2023-01-16T20:17:20;6.30;;;1.25;;
21036;SDS011;10677;50.942;4.028;2023-01-16T20:19:47;11.57;;;2.33;;
21036;SDS011;10677;50.942;4.028;2023-01-16T20:22:17;7.18;;;1.55;;
21036;SDS011;10677;50.942;4.028;2023-01-16T20:24:44;5.88;;;1.10;;
21036;SDS011;10677;50.942;4.028;2023-01-16T20:27:19;6.32;;;1.08;;
21036;SDS011;10677;50.942;4.028;2023-01-16T20:29:47;6.20;;;1.17;;
21036;SDS011;10677;50.942;4.028;2023-01-16T20:32:13;6.05;;;1.13;;
21036;SDS011;10677;50.942;4.028;2023-01-16T20:34:40;6.90;;;1.52;;
21036;SDS011;10677;50.942;4.028;2023-01-16T20:37:07;8.23;;;1.33;;
21036;SDS011;10677;50.942;4.028;2023-01-16T20:39:36;9.27;;;1.67;;
21036;SDS011;10677;50.942;4.028;2023-01-16T20:42:02;8.55;;;1.55;;
21036;SDS011;10677;50.942;4.028;2023-01-16T20:44:46;12.50;;;1.50;;
21036;SDS011;10677;50.942;4.028;2023-01-16T20:47:31;5.85;;;0.82;;
21036;SDS011;10677;50.942;4.028;2023-01-16T20:49:57;11.73;;;1.45;;
21036;SDS011;10677;50.942;4.028;2023-01-16T20:52:23;6.30;;;1.33;;
21036;SDS011;10677;50.942;4.028;2023-01-16T20:54:49;11.18;;;1.30;;
21036;SDS011;10677;50.942;4.028;2023-01-16T20:57:15;8.43;;;1.40;;
21036;SDS011;10677;50.942;4.028;2023-01-16T20:59:41;7.80;;;1.50;;
21036;SDS011;10677;50.942;4.028;2023-01-16T21:02:07;10.70;;;2.63;;
21036;SDS011;10677;50.942;4.028;2023-01-16T21:04:35;6.05;;;1.05;;
21036;SDS011;10677;50.942;4.028;2023-01-16T21:07:02;3.60;;;1.00;;
21036;SDS011;10677;50.942;4.028;2023-01-16T21:09:28;10.75;;;1.77;;
21036;SDS011;10677;50.942;4.028;2023-01-16T21:11:53;10.48;;;1.50;;
21036;SDS011;10677;50.942;4.028;2023-01-16T21:14:38;5.43;;;1.42;;
21036;SDS011;10677;50.942;4.028;2023-01-16T21:17:04;6.50;;;1.40;;
21036;SDS011;10677;50.942;4.028;2023-01-16T21:19:49;8.52;;;1.65;;
21036;SDS011;10677;50.942;4.028;2023-01-16T21:22:34;11.43;;;2.05;;
21036;SDS011;10677;50.942;4.028;2023-01-16T21:25:02;8.63;;;2.00;;